Terminal Aerodrome Forecast
Issued by NWS

Home | Current Version | Previous Version | Text Only | Print | Product List | Glossary Off
Versions: 1 2 3 4 5 6 7 8 9 10 11 12 13

000
FTUS43 KIWX 191000 AAA
TAFSBN
TAF AMD
KSBN 191034Z 1911/2006 30012KT P6SM OVC028
     FM191300 30012G17KT P6SM BKN035
      TEMPO 1913/1916 BKN028
     FM191700 32012G20KT P6SM SCT035
     FM192300 33008KT P6SM FEW035=

USA.gov is the U.S. government's official web portal to all federal, state and local government web resources and services.